createdAt,value
2023-03-07T00:00:56.241Z,5.00
2023-03-07T00:06:05.540Z,12.33
2023-03-07T00:11:11.466Z,9.33
2023-03-07T00:21:23.961Z,15.00
2023-03-07T00:26:29.788Z,1.33
2023-03-07T00:31:34.570Z,8.50
2023-03-07T00:36:39.426Z,38.00
2023-03-07T00:41:44.043Z,39.75
2023-03-07T00:46:48.633Z,18.00
2023-03-07T00:51:53.519Z,25.75
2023-03-07T00:56:58.360Z,42.50
2023-03-07T01:02:03.390Z,39.67
2023-03-07T01:12:13.356Z,26.25
2023-03-07T01:17:18.058Z,42.75
2023-03-07T01:22:22.854Z,47.67
2023-03-07T01:27:28.108Z,49.67
2023-03-07T01:32:33.779Z,50.00
2023-03-07T01:37:38.673Z,41.67
2023-03-07T01:42:45.110Z,47.75
2023-03-07T01:47:50.653Z,47.25
2023-03-07T01:53:02.332Z,46.00
2023-03-07T01:58:12.270Z,46.25
2023-03-07T02:03:24.391Z,47.00
2023-03-07T02:08:32.276Z,71.00
2023-03-07T02:13:37.042Z,72.67
2023-03-07T02:18:49.777Z,48.50
2023-03-07T02:24:23.950Z,52.00
2023-03-07T02:29:29.655Z,47.50
2023-03-07T02:34:35.482Z,66.33
2023-03-07T02:39:49.811Z,51.00
2023-03-07T02:45:02.184Z,71.25
2023-03-07T02:50:13.826Z,63.00
2023-03-07T02:55:23.096Z,73.00
2023-03-07T03:00:40.488Z,71.00
2023-03-07T03:05:45.732Z,81.00
2023-03-07T03:10:55.830Z,76.25
2023-03-07T03:16:03.264Z,71.25
2023-03-07T03:21:13.726Z,90.75
2023-03-07T03:26:18.952Z,79.25
2023-03-07T03:36:29.908Z,76.00
2023-03-07T03:41:40.364Z,95.67
2023-03-07T03:46:46.007Z,71.75
2023-03-07T03:51:51.608Z,72.00
2023-03-07T03:56:56.990Z,83.00
2023-03-07T04:02:02.457Z,67.00
2023-03-07T04:07:07.654Z,79.00
2023-03-07T04:12:12.762Z,75.75
2023-03-07T04:17:18.060Z,92.67
2023-03-07T04:22:23.319Z,69.75
2023-03-07T04:27:28.741Z,70.50
2023-03-07T04:32:35.571Z,61.67
2023-03-07T04:37:40.791Z,61.00
2023-03-07T04:42:46.025Z,70.67
2023-03-07T04:47:51.266Z,67.33
2023-03-07T04:52:56.773Z,75.33
2023-03-07T04:58:02.418Z,77.25
2023-03-07T05:03:08.321Z,78.25
2023-03-07T05:08:13.641Z,86.50
2023-03-07T05:13:18.934Z,73.25
2023-03-07T05:18:24.356Z,76.25
2023-03-07T05:23:31.184Z,77.33
2023-03-07T05:28:36.331Z,71.33
2023-03-07T05:33:43.873Z,65.67
2023-03-07T05:38:49.490Z,65.75
2023-03-07T05:43:56.118Z,74.50
2023-03-07T05:49:01.278Z,100.67
2023-03-07T05:54:07.368Z,80.50
2023-03-07T05:59:16.649Z,83.00
2023-03-07T06:04:25.010Z,96.00
2023-03-07T06:14:36.491Z,77.25
2023-03-07T06:19:41.626Z,96.00
2023-03-07T06:24:46.725Z,87.25
2023-03-07T06:29:52.277Z,91.75
2023-03-07T06:34:57.473Z,79.25
2023-03-07T06:40:08.864Z,94.00
2023-03-07T06:45:15.702Z,77.25
2023-03-07T06:50:26.630Z,73.25
2023-03-07T06:55:40.404Z,80.50
2023-03-07T07:00:48.434Z,77.00
2023-03-07T07:05:54.548Z,80.67
2023-03-07T07:11:01.029Z,85.25
2023-03-07T07:16:10.049Z,89.25
2023-03-07T07:21:16.906Z,91.25
2023-03-07T07:26:22.104Z,100.50
2023-03-07T07:31:28.737Z,80.75
2023-03-07T07:36:35.514Z,81.75
2023-03-07T07:41:40.819Z,86.00
2023-03-07T07:46:45.986Z,80.00
2023-03-07T07:56:56.040Z,88.50
2023-03-07T08:02:02.035Z,89.75
2023-03-07T08:07:08.389Z,99.00
2023-03-07T08:12:14.087Z,99.67
2023-03-07T08:17:19.375Z,95.50
2023-03-07T08:22:24.363Z,94.67
2023-03-07T08:27:30.075Z,88.33
2023-03-07T08:32:35.213Z,85.00
2023-03-07T08:37:40.982Z,84.00
2023-03-07T08:42:46.106Z,85.25
2023-03-07T08:47:53.812Z,81.75
2023-03-07T08:52:58.865Z,79.00
2023-03-07T08:58:03.919Z,86.25
2023-03-07T09:03:10.125Z,91.25
2023-03-07T09:08:15.222Z,97.50
2023-03-07T09:13:20.324Z,104.33
2023-03-07T09:18:25.452Z,83.33
2023-03-07T09:23:30.676Z,72.00
2023-03-07T09:28:35.941Z,91.33
2023-03-07T09:33:41.689Z,88.00
2023-03-07T09:38:47.012Z,72.50
2023-03-07T09:44:10.156Z,96.50
2023-03-07T09:49:53.978Z,96.00
2023-03-07T09:55:03.097Z,106.25
2023-03-07T10:00:19.013Z,119.25
2023-03-07T10:05:30.181Z,126.75
2023-03-07T10:10:51.257Z,111.67
2023-03-07T10:16:10.674Z,126.75
2023-03-07T10:22:03.485Z,141.67
2023-03-07T10:27:17.006Z,116.00
2023-03-07T10:37:55.234Z,85.00
2023-03-07T10:43:01.665Z,78.67
2023-03-07T10:48:18.312Z,92.67
2023-03-07T10:53:33.677Z,98.00
2023-03-07T10:58:38.730Z,89.25
2023-03-07T11:03:58.526Z,85.00
2023-03-07T11:09:20.681Z,81.67
2023-03-07T11:14:30.116Z,83.25
2023-03-07T11:19:39.331Z,102.00
2023-03-07T11:24:53.090Z,86.00
2023-03-07T11:30:39.424Z,89.00
2023-03-07T11:36:04.245Z,87.00
2023-03-07T11:41:29.924Z,83.33
2023-03-07T11:46:37.235Z,84.25
2023-03-07T11:52:02.872Z,86.75
2023-03-07T11:57:37.958Z,95.67
2023-03-07T12:03:06.845Z,88.33
2023-03-07T12:08:40.171Z,66.50
2023-03-07T12:13:44.733Z,78.00
2023-03-07T12:19:38.178Z,77.00
2023-03-07T12:25:11.958Z,79.50
2023-03-07T12:30:55.301Z,74.67
2023-03-07T12:36:11.318Z,87.50
2023-03-07T12:41:28.653Z,84.00
2023-03-07T12:47:22.502Z,106.00
2023-03-07T12:52:56.572Z,70.50
2023-03-07T12:58:23.252Z,83.25
2023-03-07T13:03:50.083Z,87.00
2023-03-07T13:08:59.788Z,76.33
2023-03-07T13:14:07.973Z,88.50
2023-03-07T13:19:36.906Z,79.75
2023-03-07T13:24:43.081Z,92.75
2023-03-07T13:30:12.248Z,74.67
2023-03-07T13:35:35.401Z,70.75
2023-03-07T13:40:43.541Z,64.00
2023-03-07T13:46:05.919Z,81.67
2023-03-07T13:51:12.121Z,89.25
2023-03-07T13:56:16.881Z,71.75
2023-03-07T14:01:29.182Z,78.00
2023-03-07T14:06:37.897Z,87.00
2023-03-07T14:11:58.060Z,77.75
2023-03-07T14:17:24.337Z,81.67
2023-03-07T14:22:40.445Z,83.00
2023-03-07T14:28:03.762Z,88.67
2023-03-07T14:33:08.412Z,83.00
2023-03-07T14:38:30.933Z,81.50
2023-03-07T14:43:38.592Z,64.67
2023-03-07T14:49:11.586Z,64.75
2023-03-07T14:54:23.331Z,70.33
2023-03-07T14:59:29.677Z,72.33
2023-03-07T15:04:36.973Z,85.33
2023-03-07T15:09:41.766Z,68.75
2023-03-07T15:14:55.609Z,84.25
2023-03-07T15:20:09.371Z,83.33
2023-03-07T15:25:26.207Z,75.50
2023-03-07T15:30:34.927Z,75.00
2023-03-07T15:35:40.015Z,60.50
2023-03-07T15:40:45.428Z,70.00
2023-03-07T15:46:08.335Z,63.75
2023-03-07T15:51:24.796Z,89.50
2023-03-07T15:56:38.957Z,49.50
2023-03-07T16:01:43.798Z,76.50
2023-03-07T16:06:48.572Z,72.00
2023-03-07T16:11:53.405Z,73.25
2023-03-07T16:17:04.068Z,72.00
2023-03-07T16:22:16.328Z,69.25
2023-03-07T16:27:24.525Z,64.00
2023-03-07T16:32:29.240Z,67.75
2023-03-07T16:37:34.110Z,67.33
2023-03-07T16:42:39.520Z,77.50
2023-03-07T16:47:44.916Z,78.25
2023-03-07T16:52:49.464Z,67.00
2023-03-07T16:57:57.948Z,77.75
2023-03-07T17:03:04.532Z,87.25
2023-03-07T17:08:09.943Z,59.67
2023-03-07T17:13:18.718Z,86.33
2023-03-07T17:18:23.664Z,79.75
2023-03-07T17:23:28.279Z,61.75
2023-03-07T17:28:32.880Z,66.25
2023-03-07T17:33:37.569Z,59.67
2023-03-07T17:38:42.118Z,66.25
2023-03-07T17:43:46.657Z,74.33
2023-03-07T17:48:51.263Z,72.75
2023-03-07T17:59:03.356Z,68.75
2023-03-07T18:14:17.612Z,81.50
2023-03-07T18:19:27.233Z,73.67
2023-03-07T18:24:32.108Z,62.67
2023-03-07T18:29:40.442Z,72.75
2023-03-07T18:34:45.407Z,65.25
2023-03-07T18:39:50.154Z,68.75
2023-03-07T18:44:54.920Z,49.33
2023-03-07T18:49:59.581Z,64.50
2023-03-07T18:55:04.140Z,64.00
2023-03-07T19:00:12.507Z,56.50
2023-03-07T19:05:17.292Z,50.75
2023-03-07T19:10:21.997Z,52.67
2023-03-07T19:15:26.610Z,57.25
2023-03-07T19:20:31.263Z,57.67
2023-03-07T19:25:38.956Z,67.00
2023-03-07T19:30:43.650Z,63.25
2023-03-07T19:40:52.383Z,53.25
2023-03-07T19:45:57.671Z,51.50
2023-03-07T19:51:02.438Z,39.50
2023-03-07T19:56:21.855Z,43.33
2023-03-07T20:01:27.179Z,44.00
2023-03-07T20:06:33.568Z,43.50
2023-03-07T20:11:41.358Z,37.00
2023-03-07T20:16:46.020Z,32.25
2023-03-07T20:21:51.564Z,22.00
2023-03-07T20:26:56.335Z,17.33
2023-03-07T20:37:05.326Z,49.33
2023-03-07T20:42:09.978Z,49.50
2023-03-07T20:47:14.652Z,40.00
2023-03-07T20:52:19.439Z,44.50
2023-03-07T20:57:24.308Z,33.00
2023-03-07T21:02:28.958Z,38.00
2023-03-07T21:07:33.617Z,39.00
2023-03-07T21:12:38.277Z,27.25
2023-03-07T21:17:43.209Z,27.00
2023-03-07T21:27:52.726Z,38.00
2023-03-07T21:32:58.876Z,30.67
2023-03-07T21:38:03.526Z,44.00
2023-03-07T21:43:08.213Z,31.75
2023-03-07T21:48:13.141Z,34.00
2023-03-07T21:53:18.043Z,33.33
2023-03-07T21:58:23.727Z,33.00
2023-03-07T22:03:30.509Z,35.00
2023-03-07T22:08:35.241Z,17.25
2023-03-07T22:13:41.490Z,18.00
2023-03-07T22:18:46.005Z,38.00
2023-03-07T22:23:50.728Z,23.67
2023-03-07T22:28:55.811Z,12.50
2023-03-07T22:34:01.361Z,24.75
2023-03-07T22:39:08.436Z,35.25
2023-03-07T22:44:13.292Z,15.67
2023-03-07T22:49:17.952Z,38.25
2023-03-07T22:54:22.631Z,20.50
2023-03-07T22:59:27.397Z,44.25
2023-03-07T23:04:32.341Z,26.67
2023-03-07T23:09:36.955Z,33.50
2023-03-07T23:14:41.587Z,49.00
2023-03-07T23:19:46.270Z,18.75
2023-03-07T23:24:51.006Z,38.75
2023-03-07T23:29:55.664Z,40.33
2023-03-07T23:35:00.413Z,24.75
2023-03-07T23:40:06.249Z,33.33
2023-03-07T23:45:11.480Z,24.00
2023-03-07T23:50:17.151Z,34.00
2023-03-07T23:55:22.019Z,35.75
